sensor_id;sensor_type;location;lat;lon;timestamp;P1;durP1;ratioP1;P2;durP2;ratioP2
58647;SDS011;45992;45.920;20.074;2022-10-15T00:02:21;27.63;;;18.63;;
58647;SDS011;45992;45.920;20.074;2022-10-15T00:04:47;28.13;;;19.47;;
58647;SDS011;45992;45.920;20.074;2022-10-15T00:07:13;29.93;;;20.33;;
58647;SDS011;45992;45.920;20.074;2022-10-15T00:09:39;24.67;;;18.57;;
58647;SDS011;45992;45.920;20.074;2022-10-15T00:12:05;28.87;;;17.93;;
58647;SDS011;45992;45.920;20.074;2022-10-15T00:14:31;22.47;;;16.80;;
58647;SDS011;45992;45.920;20.074;2022-10-15T00:16:57;21.80;;;16.53;;
58647;SDS011;45992;45.920;20.074;2022-10-15T00:19:23;23.23;;;15.87;;
58647;SDS011;45992;45.920;20.074;2022-10-15T00:21:49;22.17;;;17.13;;
58647;SDS011;45992;45.920;20.074;2022-10-15T00:24:15;22.30;;;16.00;;
58647;SDS011;45992;45.920;20.074;2022-10-15T00:26:41;19.67;;;15.60;;
58647;SDS011;45992;45.920;20.074;2022-10-15T00:29:07;23.10;;;14.93;;
58647;SDS011;45992;45.920;20.074;2022-10-15T00:31:33;22.10;;;14.47;;
58647;SDS011;45992;45.920;20.074;2022-10-15T00:33:59;20.95;;;14.52;;
58647;SDS011;45992;45.920;20.074;2022-10-15T00:36:31;20.08;;;14.18;;
58647;SDS011;45992;45.920;20.074;2022-10-15T00:38:57;21.35;;;14.45;;
58647;SDS011;45992;45.920;20.074;2022-10-15T00:41:24;19.33;;;14.52;;
58647;SDS011;45992;45.920;20.074;2022-10-15T00:43:59;17.13;;;13.52;;
58647;SDS011;45992;45.920;20.074;2022-10-15T00:46:28;19.05;;;14.38;;
58647;SDS011;45992;45.920;20.074;2022-10-15T00:49:02;19.33;;;14.80;;
58647;SDS011;45992;45.920;20.074;2022-10-15T00:51:32;18.63;;;14.07;;
58647;SDS011;45992;45.920;20.074;2022-10-15T00:53:58;18.45;;;13.93;;
58647;SDS011;45992;45.920;20.074;2022-10-15T00:58:51;18.58;;;13.65;;
58647;SDS011;45992;45.920;20.074;2022-10-15T01:01:18;20.70;;;14.52;;
58647;SDS011;45992;45.920;20.074;2022-10-15T01:03:44;17.50;;;13.98;;
58647;SDS011;45992;45.920;20.074;2022-10-15T01:06:10;18.75;;;14.07;;
58647;SDS011;45992;45.920;20.074;2022-10-15T01:08:36;20.87;;;14.37;;
58647;SDS011;45992;45.920;20.074;2022-10-15T01:11:07;18.27;;;14.38;;
58647;SDS011;45992;45.920;20.074;2022-10-15T01:16:23;19.10;;;13.68;;
58647;SDS011;45992;45.920;20.074;2022-10-15T01:21:28;18.58;;;13.40;;
58647;SDS011;45992;45.920;20.074;2022-10-15T01:26:33;19.37;;;14.50;;
58647;SDS011;45992;45.920;20.074;2022-10-15T01:31:39;21.27;;;14.13;;
58647;SDS011;45992;45.920;20.074;2022-10-15T01:37:06;19.30;;;13.88;;
58647;SDS011;45992;45.920;20.074;2022-10-15T01:39:37;17.38;;;13.70;;
58647;SDS011;45992;45.920;20.074;2022-10-15T01:42:06;21.63;;;14.73;;
58647;SDS011;45992;45.920;20.074;2022-10-15T01:44:39;17.95;;;14.20;;
58647;SDS011;45992;45.920;20.074;2022-10-15T01:47:14;18.85;;;14.35;;
58647;SDS011;45992;45.920;20.074;2022-10-15T01:49:42;17.52;;;12.63;;
58647;SDS011;45992;45.920;20.074;2022-10-15T01:52:10;19.55;;;13.77;;
58647;SDS011;45992;45.920;20.074;2022-10-15T01:54:37;19.27;;;13.93;;
58647;SDS011;45992;45.920;20.074;2022-10-15T01:59:30;17.42;;;13.40;;
58647;SDS011;45992;45.920;20.074;2022-10-15T02:01:57;19.80;;;13.65;;
58647;SDS011;45992;45.920;20.074;2022-10-15T02:04:24;20.92;;;13.65;;
58647;SDS011;45992;45.920;20.074;2022-10-15T02:07:00;25.77;;;14.75;;
58647;SDS011;45992;45.920;20.074;2022-10-15T02:12:31;18.92;;;13.63;;
58647;SDS011;45992;45.920;20.074;2022-10-15T02:20:50;20.05;;;14.27;;
58647;SDS011;45992;45.920;20.074;2022-10-15T02:23:21;19.97;;;14.07;;
58647;SDS011;45992;45.920;20.074;2022-10-15T02:25:48;18.42;;;14.05;;
58647;SDS011;45992;45.920;20.074;2022-10-15T02:28:16;19.55;;;14.02;;
58647;SDS011;45992;45.920;20.074;2022-10-15T02:30:42;19.63;;;15.48;;
58647;SDS011;45992;45.920;20.074;2022-10-15T02:33:10;20.38;;;15.10;;
58647;SDS011;45992;45.920;20.074;2022-10-15T02:35:36;19.23;;;15.68;;
58647;SDS011;45992;45.920;20.074;2022-10-15T02:38:04;20.25;;;15.27;;
58647;SDS011;45992;45.920;20.074;2022-10-15T02:40:31;19.38;;;15.63;;
58647;SDS011;45992;45.920;20.074;2022-10-15T02:42:58;20.33;;;15.38;;
58647;SDS011;45992;45.920;20.074;2022-10-15T02:45:24;20.50;;;15.80;;
58647;SDS011;45992;45.920;20.074;2022-10-15T02:47:50;22.47;;;16.23;;
58647;SDS011;45992;45.920;20.074;2022-10-15T02:50:16;17.23;;;14.83;;
58647;SDS011;45992;45.920;20.074;2022-10-15T02:52:42;19.60;;;16.20;;
58647;SDS011;45992;45.920;20.074;2022-10-15T02:55:08;22.57;;;15.73;;
58647;SDS011;45992;45.920;20.074;2022-10-15T02:57:34;23.10;;;17.33;;
58647;SDS011;45992;45.920;20.074;2022-10-15T03:00:00;17.97;;;15.30;;
58647;SDS011;45992;45.920;20.074;2022-10-15T03:02:26;23.37;;;16.23;;
58647;SDS011;45992;45.920;20.074;2022-10-15T03:04:52;18.30;;;14.83;;
58647;SDS011;45992;45.920;20.074;2022-10-15T03:07:18;21.57;;;15.73;;
58647;SDS011;45992;45.920;20.074;2022-10-15T03:09:44;18.33;;;14.83;;
58647;SDS011;45992;45.920;20.074;2022-10-15T03:12:10;19.00;;;15.77;;
58647;SDS011;45992;45.920;20.074;2022-10-15T03:14:36;21.93;;;15.63;;
58647;SDS011;45992;45.920;20.074;2022-10-15T03:17:02;18.80;;;15.17;;
58647;SDS011;45992;45.920;20.074;2022-10-15T03:19:28;21.17;;;15.77;;
58647;SDS011;45992;45.920;20.074;2022-10-15T03:21:54;19.30;;;15.80;;
58647;SDS011;45992;45.920;20.074;2022-10-15T03:24:20;20.87;;;15.80;;
58647;SDS011;45992;45.920;20.074;2022-10-15T03:26:46;18.80;;;15.15;;
58647;SDS011;45992;45.920;20.074;2022-10-15T03:29:12;19.80;;;15.97;;
58647;SDS011;45992;45.920;20.074;2022-10-15T03:31:38;20.20;;;16.37;;
58647;SDS011;45992;45.920;20.074;2022-10-15T03:34:04;24.27;;;17.20;;
58647;SDS011;45992;45.920;20.074;2022-10-15T03:36:30;20.53;;;16.83;;
58647;SDS011;45992;45.920;20.074;2022-10-15T03:38:56;24.50;;;17.07;;
58647;SDS011;45992;45.920;20.074;2022-10-15T03:41:22;23.57;;;15.80;;
58647;SDS011;45992;45.920;20.074;2022-10-15T03:43:49;19.40;;;16.38;;
58647;SDS011;45992;45.920;20.074;2022-10-15T03:46:15;21.13;;;16.63;;
58647;SDS011;45992;45.920;20.074;2022-10-15T03:48:41;20.97;;;15.47;;
58647;SDS011;45992;45.920;20.074;2022-10-15T03:51:07;21.97;;;17.70;;
58647;SDS011;45992;45.920;20.074;2022-10-15T03:53:33;20.13;;;16.33;;
58647;SDS011;45992;45.920;20.074;2022-10-15T03:56:05;22.97;;;18.03;;
58647;SDS011;45992;45.920;20.074;2022-10-15T03:58:31;24.33;;;17.02;;
58647;SDS011;45992;45.920;20.074;2022-10-15T04:00:57;17.73;;;15.77;;
58647;SDS011;45992;45.920;20.074;2022-10-15T04:03:23;21.93;;;16.47;;
58647;SDS011;45992;45.920;20.074;2022-10-15T04:05:52;25.37;;;17.83;;
58647;SDS011;45992;45.920;20.074;2022-10-15T04:08:18;21.13;;;16.77;;
58647;SDS011;45992;45.920;20.074;2022-10-15T04:10:44;23.52;;;17.45;;
58647;SDS011;45992;45.920;20.074;2022-10-15T04:13:10;21.20;;;16.90;;
58647;SDS011;45992;45.920;20.074;2022-10-15T04:15:39;22.83;;;18.43;;
58647;SDS011;45992;45.920;20.074;2022-10-15T04:18:05;25.10;;;18.80;;
58647;SDS011;45992;45.920;20.074;2022-10-15T04:20:31;19.75;;;15.68;;
58647;SDS011;45992;45.920;20.074;2022-10-15T04:22:57;23.50;;;17.37;;
58647;SDS011;45992;45.920;20.074;2022-10-15T04:25:23;20.90;;;17.77;;
58647;SDS011;45992;45.920;20.074;2022-10-15T04:27:49;23.23;;;18.20;;
58647;SDS011;45992;45.920;20.074;2022-10-15T04:30:17;22.70;;;17.95;;
58647;SDS011;45992;45.920;20.074;2022-10-15T04:32:43;28.67;;;17.42;;
58647;SDS011;45992;45.920;20.074;2022-10-15T04:35:09;23.35;;;17.73;;
58647;SDS011;45992;45.920;20.074;2022-10-15T04:37:35;25.20;;;17.67;;
58647;SDS011;45992;45.920;20.074;2022-10-15T04:40:02;23.30;;;18.75;;
58647;SDS011;45992;45.920;20.074;2022-10-15T04:42:29;21.95;;;18.23;;
58647;SDS011;45992;45.920;20.074;2022-10-15T04:44:55;21.65;;;18.05;;
58647;SDS011;45992;45.920;20.074;2022-10-15T04:47:21;23.17;;;17.80;;
58647;SDS011;45992;45.920;20.074;2022-10-15T04:49:47;26.65;;;19.10;;
58647;SDS011;45992;45.920;20.074;2022-10-15T04:52:13;24.03;;;19.13;;
58647;SDS011;45992;45.920;20.074;2022-10-15T04:54:39;22.63;;;19.20;;
58647;SDS011;45992;45.920;20.074;2022-10-15T04:57:05;22.60;;;17.93;;
58647;SDS011;45992;45.920;20.074;2022-10-15T04:59:32;23.15;;;17.48;;
58647;SDS011;45992;45.920;20.074;2022-10-15T05:01:58;27.75;;;19.55;;
58647;SDS011;45992;45.920;20.074;2022-10-15T05:04:24;25.85;;;18.30;;
58647;SDS011;45992;45.920;20.074;2022-10-15T05:06:50;27.77;;;20.43;;
58647;SDS011;45992;45.920;20.074;2022-10-15T05:09:17;25.07;;;19.87;;
58647;SDS011;45992;45.920;20.074;2022-10-15T05:11:43;23.63;;;19.13;;
58647;SDS011;45992;45.920;20.074;2022-10-15T05:14:09;28.50;;;19.27;;
58647;SDS011;45992;45.920;20.074;2022-10-15T05:16:35;24.75;;;18.02;;
58647;SDS011;45992;45.920;20.074;2022-10-15T05:19:02;25.07;;;19.33;;
58647;SDS011;45992;45.920;20.074;2022-10-15T05:21:28;25.25;;;19.27;;
58647;SDS011;45992;45.920;20.074;2022-10-15T05:23:55;24.45;;;17.85;;
58647;SDS011;45992;45.920;20.074;2022-10-15T05:26:22;24.98;;;18.33;;
58647;SDS011;45992;45.920;20.074;2022-10-15T05:28:49;22.40;;;18.52;;
58647;SDS011;45992;45.920;20.074;2022-10-15T05:31:19;24.38;;;18.35;;
58647;SDS011;45992;45.920;20.074;2022-10-15T05:33:46;22.95;;;18.65;;
58647;SDS011;45992;45.920;20.074;2022-10-15T05:36:13;23.33;;;16.75;;
58647;SDS011;45992;45.920;20.074;2022-10-15T05:38:43;23.83;;;18.73;;
58647;SDS011;45992;45.920;20.074;2022-10-15T05:41:09;22.55;;;17.83;;
58647;SDS011;45992;45.920;20.074;2022-10-15T05:43:35;23.42;;;18.35;;
58647;SDS011;45992;45.920;20.074;2022-10-15T05:46:02;25.23;;;17.88;;
58647;SDS011;45992;45.920;20.074;2022-10-15T05:48:28;20.75;;;16.85;;
58647;SDS011;45992;45.920;20.074;2022-10-15T05:50:59;24.85;;;15.80;;
58647;SDS011;45992;45.920;20.074;2022-10-15T05:53:25;20.08;;;15.43;;
58647;SDS011;45992;45.920;20.074;2022-10-15T05:55:52;19.25;;;13.95;;
58647;SDS011;45992;45.920;20.074;2022-10-15T05:58:18;16.30;;;13.75;;
58647;SDS011;45992;45.920;20.074;2022-10-15T06:00:44;16.63;;;14.38;;
58647;SDS011;45992;45.920;20.074;2022-10-15T06:03:11;17.50;;;13.20;;
58647;SDS011;45992;45.920;20.074;2022-10-15T06:05:38;15.55;;;12.18;;
58647;SDS011;45992;45.920;20.074;2022-10-15T06:08:04;16.58;;;12.43;;
58647;SDS011;45992;45.920;20.074;2022-10-15T06:10:33;18.42;;;12.55;;
58647;SDS011;45992;45.920;20.074;2022-10-15T06:13:00;14.68;;;12.73;;
58647;SDS011;45992;45.920;20.074;2022-10-15T06:15:25;16.15;;;13.02;;
58647;SDS011;45992;45.920;20.074;2022-10-15T06:17:52;14.25;;;11.90;;
58647;SDS011;45992;45.920;20.074;2022-10-15T06:20:18;17.38;;;12.95;;
58647;SDS011;45992;45.920;20.074;2022-10-15T06:22:44;13.27;;;11.82;;
58647;SDS011;45992;45.920;20.074;2022-10-15T06:25:10;15.93;;;12.40;;
58647;SDS011;45992;45.920;20.074;2022-10-15T06:27:36;13.13;;;11.65;;
58647;SDS011;45992;45.920;20.074;2022-10-15T06:30:02;15.80;;;12.32;;
58647;SDS011;45992;45.920;20.074;2022-10-15T06:32:28;14.63;;;11.70;;
58647;SDS011;45992;45.920;20.074;2022-10-15T06:34:54;14.95;;;12.25;;
58647;SDS011;45992;45.920;20.074;2022-10-15T06:37:20;16.63;;;12.07;;
58647;SDS011;45992;45.920;20.074;2022-10-15T06:39:46;15.05;;;11.05;;
58647;SDS011;45992;45.920;20.074;2022-10-15T06:42:12;16.05;;;11.65;;
58647;SDS011;45992;45.920;20.074;2022-10-15T06:44:39;14.57;;;10.90;;
58647;SDS011;45992;45.920;20.074;2022-10-15T06:47:05;12.95;;;11.25;;
58647;SDS011;45992;45.920;20.074;2022-10-15T06:51:57;15.93;;;10.55;;
58647;SDS011;45992;45.920;20.074;2022-10-15T06:54:23;16.23;;;10.90;;
58647;SDS011;45992;45.920;20.074;2022-10-15T06:56:49;13.65;;;11.00;;
58647;SDS011;45992;45.920;20.074;2022-10-15T06:59:15;13.65;;;10.48;;
58647;SDS011;45992;45.920;20.074;2022-10-15T07:01:41;12.40;;;10.13;;
58647;SDS011;45992;45.920;20.074;2022-10-15T07:04:07;13.20;;;10.63;;
58647;SDS011;45992;45.920;20.074;2022-10-15T07:06:34;14.45;;;10.93;;
58647;SDS011;45992;45.920;20.074;2022-10-15T07:09:00;14.18;;;9.18;;
58647;SDS011;45992;45.920;20.074;2022-10-15T07:11:27;12.88;;;9.45;;
58647;SDS011;45992;45.920;20.074;2022-10-15T07:13:53;11.60;;;9.68;;
58647;SDS011;45992;45.920;20.074;2022-10-15T07:16:21;14.48;;;9.45;;
58647;SDS011;45992;45.920;20.074;2022-10-15T07:18:47;18.05;;;13.25;;
58647;SDS011;45992;45.920;20.074;2022-10-15T07:21:13;16.10;;;11.35;;
58647;SDS011;45992;45.920;20.074;2022-10-15T07:23:39;12.55;;;8.68;;
58647;SDS011;45992;45.920;20.074;2022-10-15T07:26:05;15.38;;;12.63;;
58647;SDS011;45992;45.920;20.074;2022-10-15T07:28:31;12.27;;;9.10;;
58647;SDS011;45992;45.920;20.074;2022-10-15T07:31:01;15.20;;;11.75;;
58647;SDS011;45992;45.920;20.074;2022-10-15T07:33:27;18.33;;;11.23;;
58647;SDS011;45992;45.920;20.074;2022-10-15T07:35:53;14.23;;;9.43;;
58647;SDS011;45992;45.920;20.074;2022-10-15T07:38:19;15.02;;;10.43;;
58647;SDS011;45992;45.920;20.074;2022-10-15T07:40:45;11.25;;;8.55;;
58647;SDS011;45992;45.920;20.074;2022-10-15T07:45:37;11.32;;;9.38;;
58647;SDS011;45992;45.920;20.074;2022-10-15T07:48:04;15.65;;;9.27;;
58647;SDS011;45992;45.920;20.074;2022-10-15T07:50:30;10.85;;;8.65;;
58647;SDS011;45992;45.920;20.074;2022-10-15T07:52:56;10.70;;;8.68;;
58647;SDS011;45992;45.920;20.074;2022-10-15T07:55:22;15.23;;;9.18;;
58647;SDS011;45992;45.920;20.074;2022-10-15T07:57:48;14.38;;;8.85;;
58647;SDS011;45992;45.920;20.074;2022-10-15T08:00:14;11.57;;;8.77;;
58647;SDS011;45992;45.920;20.074;2022-10-15T08:02:40;11.93;;;8.70;;
58647;SDS011;45992;45.920;20.074;2022-10-15T08:05:06;10.55;;;7.68;;
58647;SDS011;45992;45.920;20.074;2022-10-15T08:07:32;14.23;;;8.95;;
58647;SDS011;45992;45.920;20.074;2022-10-15T08:09:58;11.70;;;8.55;;
58647;SDS011;45992;45.920;20.074;2022-10-15T08:12:24;11.85;;;8.50;;
58647;SDS011;45992;45.920;20.074;2022-10-15T08:14:50;15.73;;;8.77;;
58647;SDS011;45992;45.920;20.074;2022-10-15T08:17:16;12.48;;;8.85;;
58647;SDS011;45992;45.920;20.074;2022-10-15T08:19:42;12.85;;;9.10;;
58647;SDS011;45992;45.920;20.074;2022-10-15T08:22:08;11.73;;;8.82;;
58647;SDS011;45992;45.920;20.074;2022-10-15T08:24:36;11.98;;;7.47;;
58647;SDS011;45992;45.920;20.074;2022-10-15T08:27:02;10.07;;;7.97;;
58647;SDS011;45992;45.920;20.074;2022-10-15T08:29:28;11.27;;;7.70;;
58647;SDS011;45992;45.920;20.074;2022-10-15T08:31:54;10.80;;;8.02;;
58647;SDS011;45992;45.920;20.074;2022-10-15T08:34:20;11.88;;;7.43;;
58647;SDS011;45992;45.920;20.074;2022-10-15T08:36:46;10.48;;;7.82;;
58647;SDS011;45992;45.920;20.074;2022-10-15T08:39:12;9.80;;;7.15;;
58647;SDS011;45992;45.920;20.074;2022-10-15T08:41:48;10.85;;;8.00;;
58647;SDS011;45992;45.920;20.074;2022-10-15T08:44:24;11.18;;;7.93;;
58647;SDS011;45992;45.920;20.074;2022-10-15T08:46:52;12.13;;;7.97;;
58647;SDS011;45992;45.920;20.074;2022-10-15T08:50:02;15.68;;;8.20;;
58647;SDS011;45992;45.920;20.074;2022-10-15T08:52:42;10.02;;;7.15;;
58647;SDS011;45992;45.920;20.074;2022-10-15T08:55:00;13.25;;;8.65;;
58647;SDS011;45992;45.920;20.074;2022-10-15T09:02:52;14.32;;;7.72;;
58647;SDS011;45992;45.920;20.074;2022-10-15T09:05:27;12.17;;;8.67;;
58647;SDS011;45992;45.920;20.074;2022-10-15T09:07:56;10.80;;;7.82;;
58647;SDS011;45992;45.920;20.074;2022-10-15T09:10:45;13.27;;;8.88;;
58647;SDS011;45992;45.920;20.074;2022-10-15T09:15:48;11.68;;;8.25;;
58647;SDS011;45992;45.920;20.074;2022-10-15T09:18:17;16.70;;;9.40;;
58647;SDS011;45992;45.920;20.074;2022-10-15T09:20:44;11.45;;;9.43;;
58647;SDS011;45992;45.920;20.074;2022-10-15T09:23:13;12.25;;;8.15;;
58647;SDS011;45992;45.920;20.074;2022-10-15T09:25:41;12.63;;;7.20;;
58647;SDS011;45992;45.920;20.074;2022-10-15T09:28:09;12.93;;;7.50;;
58647;SDS011;45992;45.920;20.074;2022-10-15T09:33:16;13.88;;;7.57;;
58647;SDS011;45992;45.920;20.074;2022-10-15T09:43:40;17.50;;;9.57;;
58647;SDS011;45992;45.920;20.074;2022-10-15T09:46:07;15.32;;;9.63;;
58647;SDS011;45992;45.920;20.074;2022-10-15T09:48:39;11.50;;;8.23;;
58647;SDS011;45992;45.920;20.074;2022-10-15T09:51:11;13.00;;;8.93;;
58647;SDS011;45992;45.920;20.074;2022-10-15T09:56:18;10.77;;;7.75;;
58647;SDS011;45992;45.920;20.074;2022-10-15T10:01:17;14.43;;;7.18;;
58647;SDS011;45992;45.920;20.074;2022-10-15T10:03:44;16.02;;;9.38;;
58647;SDS011;45992;45.920;20.074;2022-10-15T10:06:10;11.77;;;8.48;;
58647;SDS011;45992;45.920;20.074;2022-10-15T10:08:38;12.10;;;8.95;;
58647;SDS011;45992;45.920;20.074;2022-10-15T10:11:06;12.13;;;8.77;;
58647;SDS011;45992;45.920;20.074;2022-10-15T10:13:35;11.43;;;7.50;;
58647;SDS011;45992;45.920;20.074;2022-10-15T10:16:07;14.60;;;8.95;;
58647;SDS011;45992;45.920;20.074;2022-10-15T10:18:33;13.48;;;8.90;;
58647;SDS011;45992;45.920;20.074;2022-10-15T10:21:02;12.40;;;9.13;;
58647;SDS011;45992;45.920;20.074;2022-10-15T10:23:31;13.15;;;9.30;;
58647;SDS011;45992;45.920;20.074;2022-10-15T10:25:59;12.63;;;8.27;;
58647;SDS011;45992;45.920;20.074;2022-10-15T10:28:27;11.55;;;7.65;;
58647;SDS011;45992;45.920;20.074;2022-10-15T10:33:25;12.32;;;7.28;;
58647;SDS011;45992;45.920;20.074;2022-10-15T10:35:52;10.85;;;7.03;;
58647;SDS011;45992;45.920;20.074;2022-10-15T10:38:25;14.18;;;7.50;;
58647;SDS011;45992;45.920;20.074;2022-10-15T10:40:55;12.10;;;8.13;;
58647;SDS011;45992;45.920;20.074;2022-10-15T10:43:29;12.85;;;7.78;;
58647;SDS011;45992;45.920;20.074;2022-10-15T10:48:25;11.43;;;7.70;;
58647;SDS011;45992;45.920;20.074;2022-10-15T10:51:00;12.65;;;7.55;;
58647;SDS011;45992;45.920;20.074;2022-10-15T10:53:27;12.88;;;7.20;;
58647;SDS011;45992;45.920;20.074;2022-10-15T10:55:53;10.52;;;7.00;;
58647;SDS011;45992;45.920;20.074;2022-10-15T10:58:21;13.75;;;7.97;;
58647;SDS011;45992;45.920;20.074;2022-10-15T11:00:49;11.30;;;7.15;;
58647;SDS011;45992;45.920;20.074;2022-10-15T11:05:53;12.00;;;6.75;;
58647;SDS011;45992;45.920;20.074;2022-10-15T11:21:33;9.77;;;6.95;;
58647;SDS011;45992;45.920;20.074;2022-10-15T11:29:36;14.10;;;7.10;;
58647;SDS011;45992;45.920;20.074;2022-10-15T11:39:48;13.98;;;7.75;;
58647;SDS011;45992;45.920;20.074;2022-10-15T11:47:21;11.13;;;7.13;;
58647;SDS011;45992;45.920;20.074;2022-10-15T11:49:54;11.10;;;6.07;;
58647;SDS011;45992;45.920;20.074;2022-10-15T11:57:34;15.32;;;7.03;;
58647;SDS011;45992;45.920;20.074;2022-10-15T12:00:05;13.13;;;6.35;;
58647;SDS011;45992;45.920;20.074;2022-10-15T12:02:35;14.40;;;9.38;;
58647;SDS011;45992;45.920;20.074;2022-10-15T12:05:09;13.95;;;8.30;;
58647;SDS011;45992;45.920;20.074;2022-10-15T12:07:40;11.60;;;6.95;;
58647;SDS011;45992;45.920;20.074;2022-10-15T12:18:03;10.38;;;7.13;;
58647;SDS011;45992;45.920;20.074;2022-10-15T12:20:33;13.13;;;6.47;;
58647;SDS011;45992;45.920;20.074;2022-10-15T12:23:01;8.23;;;5.88;;
58647;SDS011;45992;45.920;20.074;2022-10-15T12:30:26;14.23;;;6.75;;
58647;SDS011;45992;45.920;20.074;2022-10-15T12:32:52;12.80;;;6.00;;
58647;SDS011;45992;45.920;20.074;2022-10-15T12:37:46;10.35;;;6.63;;
58647;SDS011;45992;45.920;20.074;2022-10-15T12:42:48;12.85;;;5.85;;
58647;SDS011;45992;45.920;20.074;2022-10-15T12:45:33;10.68;;;5.55;;
58647;SDS011;45992;45.920;20.074;2022-10-15T12:50:30;9.77;;;5.57;;
58647;SDS011;45992;45.920;20.074;2022-10-15T12:55:30;9.45;;;5.75;;
58647;SDS011;45992;45.920;20.074;2022-10-15T12:57:57;10.55;;;7.13;;
58647;SDS011;45992;45.920;20.074;2022-10-15T13:02:53;10.48;;;6.38;;
58647;SDS011;45992;45.920;20.074;2022-10-15T13:05:26;14.75;;;7.70;;
58647;SDS011;45992;45.920;20.074;2022-10-15T13:07:52;8.80;;;5.72;;
58647;SDS011;45992;45.920;20.074;2022-10-15T13:10:27;10.10;;;5.20;;
58647;SDS011;45992;45.920;20.074;2022-10-15T13:12:55;11.63;;;5.45;;
58647;SDS011;45992;45.920;20.074;2022-10-15T13:15:25;9.27;;;5.30;;
58647;SDS011;45992;45.920;20.074;2022-10-15T13:17:57;15.70;;;8.60;;
58647;SDS011;45992;45.920;20.074;2022-10-15T13:20:33;10.55;;;5.93;;
58647;SDS011;45992;45.920;20.074;2022-10-15T13:25:26;10.90;;;5.25;;
58647;SDS011;45992;45.920;20.074;2022-10-15T13:27:52;10.52;;;6.13;;
58647;SDS011;45992;45.920;20.074;2022-10-15T13:30:18;11.40;;;6.07;;
58647;SDS011;45992;45.920;20.074;2022-10-15T13:32:46;9.57;;;5.72;;
58647;SDS011;45992;45.920;20.074;2022-10-15T13:35:17;8.45;;;5.07;;
58647;SDS011;45992;45.920;20.074;2022-10-15T13:37:43;11.02;;;5.25;;
58647;SDS011;45992;45.920;20.074;2022-10-15T13:40:16;8.52;;;5.50;;
58647;SDS011;45992;45.920;20.074;2022-10-15T13:43:03;12.95;;;4.97;;
58647;SDS011;45992;45.920;20.074;2022-10-15T13:45:30;8.57;;;5.10;;
58647;SDS011;45992;45.920;20.074;2022-10-15T13:50:23;11.77;;;4.90;;
58647;SDS011;45992;45.920;20.074;2022-10-15T13:55:26;9.05;;;5.28;;
58647;SDS011;45992;45.920;20.074;2022-10-15T13:57:55;10.85;;;5.90;;
58647;SDS011;45992;45.920;20.074;2022-10-15T14:00:27;10.85;;;5.60;;
58647;SDS011;45992;45.920;20.074;2022-10-15T14:03:06;12.35;;;7.78;;
58647;SDS011;45992;45.920;20.074;2022-10-15T14:05:32;12.90;;;5.90;;
58647;SDS011;45992;45.920;20.074;2022-10-15T14:07:58;11.35;;;6.38;;
58647;SDS011;45992;45.920;20.074;2022-10-15T14:10:25;13.50;;;7.45;;
58647;SDS011;45992;45.920;20.074;2022-10-15T14:12:51;12.63;;;6.95;;
58647;SDS011;45992;45.920;20.074;2022-10-15T14:18:02;9.35;;;5.25;;
58647;SDS011;45992;45.920;20.074;2022-10-15T14:20:28;9.18;;;4.60;;
58647;SDS011;45992;45.920;20.074;2022-10-15T14:22:54;11.70;;;5.57;;
58647;SDS011;45992;45.920;20.074;2022-10-15T14:25:21;11.98;;;7.38;;
58647;SDS011;45992;45.920;20.074;2022-10-15T14:27:48;11.77;;;6.18;;
58647;SDS011;45992;45.920;20.074;2022-10-15T14:30:25;12.15;;;7.20;;
58647;SDS011;45992;45.920;20.074;2022-10-15T14:32:52;11.98;;;6.18;;
58647;SDS011;45992;45.920;20.074;2022-10-15T14:35:32;14.32;;;9.18;;
58647;SDS011;45992;45.920;20.074;2022-10-15T14:40:25;9.07;;;6.10;;
58647;SDS011;45992;45.920;20.074;2022-10-15T14:47:47;10.32;;;4.80;;
58647;SDS011;45992;45.920;20.074;2022-10-15T14:50:14;9.35;;;4.95;;
58647;SDS011;45992;45.920;20.074;2022-10-15T14:52:45;16.65;;;10.80;;
58647;SDS011;45992;45.920;20.074;2022-10-15T14:57:39;10.35;;;5.63;;
58647;SDS011;45992;45.920;20.074;2022-10-15T15:02:40;10.45;;;4.57;;
58647;SDS011;45992;45.920;20.074;2022-10-15T15:07:35;30.58;;;14.10;;
58647;SDS011;45992;45.920;20.074;2022-10-15T15:10:02;41.47;;;21.08;;
58647;SDS011;45992;45.920;20.074;2022-10-15T15:12:28;16.42;;;9.30;;
58647;SDS011;45992;45.920;20.074;2022-10-15T15:14:55;16.90;;;9.23;;
58647;SDS011;45992;45.920;20.074;2022-10-15T15:17:23;20.58;;;10.23;;
58647;SDS011;45992;45.920;20.074;2022-10-15T15:19:50;17.50;;;10.63;;
58647;SDS011;45992;45.920;20.074;2022-10-15T15:22:19;16.27;;;10.07;;
58647;SDS011;45992;45.920;20.074;2022-10-15T15:24:46;16.83;;;8.98;;
58647;SDS011;45992;45.920;20.074;2022-10-15T15:27:17;20.38;;;12.65;;
58647;SDS011;45992;45.920;20.074;2022-10-15T15:29:45;14.80;;;9.07;;
58647;SDS011;45992;45.920;20.074;2022-10-15T15:32:11;16.10;;;9.15;;
58647;SDS011;45992;45.920;20.074;2022-10-15T15:34:37;13.15;;;8.82;;
58647;SDS011;45992;45.920;20.074;2022-10-15T15:39:30;19.42;;;10.35;;
58647;SDS011;45992;45.920;20.074;2022-10-15T15:41:56;19.60;;;12.07;;
58647;SDS011;45992;45.920;20.074;2022-10-15T15:44:22;15.95;;;9.02;;
58647;SDS011;45992;45.920;20.074;2022-10-15T15:46:48;14.98;;;7.63;;
58647;SDS011;45992;45.920;20.074;2022-10-15T15:49:19;16.48;;;6.85;;
58647;SDS011;45992;45.920;20.074;2022-10-15T15:51:45;15.68;;;6.80;;
58647;SDS011;45992;45.920;20.074;2022-10-15T15:54:11;11.95;;;6.90;;
58647;SDS011;45992;45.920;20.074;2022-10-15T15:56:37;21.67;;;11.60;;
58647;SDS011;45992;45.920;20.074;2022-10-15T15:59:04;19.05;;;10.18;;
58647;SDS011;45992;45.920;20.074;2022-10-15T16:01:30;12.60;;;6.78;;
58647;SDS011;45992;45.920;20.074;2022-10-15T16:03:56;11.77;;;6.55;;
58647;SDS011;45992;45.920;20.074;2022-10-15T16:06:22;9.55;;;6.00;;
58647;SDS011;45992;45.920;20.074;2022-10-15T16:08:52;14.85;;;6.57;;
58647;SDS011;45992;45.920;20.074;2022-10-15T16:11:18;12.45;;;7.43;;
58647;SDS011;45992;45.920;20.074;2022-10-15T16:13:44;11.73;;;7.13;;
58647;SDS011;45992;45.920;20.074;2022-10-15T16:16:10;12.43;;;7.30;;
58647;SDS011;45992;45.920;20.074;2022-10-15T16:18:36;12.95;;;7.97;;
58647;SDS011;45992;45.920;20.074;2022-10-15T16:21:03;14.35;;;8.75;;
58647;SDS011;45992;45.920;20.074;2022-10-15T16:23:29;14.10;;;8.98;;
58647;SDS011;45992;45.920;20.074;2022-10-15T16:25:55;14.27;;;7.93;;
58647;SDS011;45992;45.920;20.074;2022-10-15T16:28:21;12.55;;;8.25;;
58647;SDS011;45992;45.920;20.074;2022-10-15T16:30:48;13.95;;;7.90;;
58647;SDS011;45992;45.920;20.074;2022-10-15T16:33:14;11.90;;;7.90;;
58647;SDS011;45992;45.920;20.074;2022-10-15T16:35:40;12.30;;;7.90;;
58647;SDS011;45992;45.920;20.074;2022-10-15T16:38:06;18.77;;;11.43;;
58647;SDS011;45992;45.920;20.074;2022-10-15T16:40:33;22.38;;;14.43;;
58647;SDS011;45992;45.920;20.074;2022-10-15T16:42:59;27.20;;;15.65;;
58647;SDS011;45992;45.920;20.074;2022-10-15T16:45:25;24.73;;;14.23;;
58647;SDS011;45992;45.920;20.074;2022-10-15T16:47:51;21.20;;;12.13;;
58647;SDS011;45992;45.920;20.074;2022-10-15T16:50:17;25.33;;;15.45;;
58647;SDS011;45992;45.920;20.074;2022-10-15T16:52:43;27.70;;;17.92;;